Time;durP1;ratioP1;P1;durP2;ratioP2;P2;SDS_P1;SDS_P2;PMS_P1;PMS_P2;Temp;Humidity;BMP_temperature;BMP_pressure;BME280_temperature;BME280_humidity;BME280_pressure;Samples;Min_cycle;Max_cycle;Signal;HPM_P1;HPM_P2
2022/02/17 00:00:51;;;;;;;4.88;3.20;;;;;;;;;;5094057;28;20044;-70
2022/02/17 00:03:18;;;;;;;4.85;2.97;;;;;;;;;;5094878;28;20051;-70
2022/02/17 00:05:45;;;;;;;7.65;3.53;;;;;;;;;;5092307;28;20103;-70
2022/02/17 00:08:18;;;;;;;5.63;3.65;;;;;;;;;;5095412;28;20047;-70
2022/02/17 00:10:45;;;;;;;9.35;3.90;;;;;;;;;;5094717;28;20087;-70
2022/02/17 00:13:12;;;;;;;5.10;2.65;;;;;;;;;;5096995;28;20094;-71
2022/02/17 00:15:38;;;;;;;4.57;3.20;;;;;;;;;;5098971;28;20056;-70
2022/02/17 00:18:13;;;;;;;4.38;3.20;;;;;;;;;;5096023;28;20382;-71
2022/02/17 00:20:39;;;;;;;6.78;3.50;;;;;;;;;;5091150;28;20134;-71
2022/02/17 00:23:06;;;;;;;4.93;3.17;;;;;;;;;;5088708;28;20044;-71
2022/02/17 00:25:32;;;;;;;5.67;3.60;;;;;;;;;;5095028;28;20779;-71
2022/02/17 00:27:59;;;;;;;6.57;3.58;;;;;;;;;;5095604;28;20087;-71
2022/02/17 00:30:25;;;;;;;5.20;3.28;;;;;;;;;;5094493;28;20127;-71
2022/02/17 00:32:58;;;;;;;5.03;3.13;;;;;;;;;;5093135;28;20179;-72
2022/02/17 00:35:25;;;;;;;5.95;3.33;;;;;;;;;;5100374;28;20135;-71
2022/02/17 00:37:53;;;;;;;8.32;2.70;;;;;;;;;;5100129;28;20558;-71
2022/02/17 00:40:19;;;;;;;4.15;3.35;;;;;;;;;;5092352;28;20076;-71
2022/02/17 00:42:46;;;;;;;4.18;2.90;;;;;;;;;;5090109;28;20177;-71
2022/02/17 00:45:12;;;;;;;7.43;3.20;;;;;;;;;;5091847;27;20131;-71
2022/02/17 00:47:39;;;;;;;3.85;2.63;;;;;;;;;;5091555;28;20135;-71
2022/02/17 00:50:06;;;;;;;5.28;3.10;;;;;;;;;;5091992;28;20154;-70
2022/02/17 00:52:33;;;;;;;4.13;2.63;;;;;;;;;;5093158;28;20126;-71
2022/02/17 00:55:03;;;;;;;3.97;2.85;;;;;;;;;;5100039;28;20123;-70
2022/02/17 00:57:29;;;;;;;3.47;2.03;;;;;;;;;;5098971;28;20483;-70
2022/02/17 00:59:55;;;;;;;4.18;3.10;;;;;;;;;;5094028;28;20130;-70
2022/02/17 01:02:23;;;;;;;4.82;3.17;;;;;;;;;;5091177;28;22131;-70
2022/02/17 01:04:50;;;;;;;9.18;3.03;;;;;;;;;;5089199;28;20127;-70
2022/02/17 01:07:16;;;;;;;7.65;3.08;;;;;;;;;;5090581;27;20109;-70
2022/02/17 01:09:44;;;;;;;6.10;3.30;;;;;;;;;;5089194;28;20162;-71
2022/02/17 01:12:11;;;;;;;5.63;3.33;;;;;;;;;;5089886;28;20044;-70
2022/02/17 01:14:37;;;;;;;7.70;3.13;;;;;;;;;;5091962;28;20039;-71
2022/02/17 01:17:05;;;;;;;;;;;;;;;;;;5099240;28;20134;-71
2022/02/17 01:19:31;;;;;;;5.75;3.28;;;;;;;;;;5091192;28;20010;-71
2022/02/17 01:21:58;;;;;;;6.75;3.00;;;;;;;;;;5088893;28;20135;-70
2022/02/17 01:24:24;;;;;;;6.90;3.10;;;;;;;;;;5089916;28;20052;-70
2022/02/17 01:26:51;;;;;;;4.32;2.78;;;;;;;;;;5089671;28;20381;-70
2022/02/17 01:29:17;;;;;;;5.75;3.60;;;;;;;;;;5089071;28;20071;-70
2022/02/17 01:31:50;;;;;;;8.93;3.47;;;;;;;;;;5092404;27;20098;-70
2022/02/17 01:34:17;;;;;;;5.40;3.50;;;;;;;;;;5091156;28;20191;-70
2022/02/17 01:36:43;;;;;;;5.70;3.13;;;;;;;;;;5090137;28;20479;-70
2022/02/17 01:39:10;;;;;;;5.03;3.22;;;;;;;;;;5097523;28;20126;-70
2022/02/17 01:41:36;;;;;;;6.32;2.70;;;;;;;;;;5096910;28;20127;-70
2022/02/17 01:44:03;;;;;;;7.90;3.15;;;;;;;;;;5098380;28;20079;-70
2022/02/17 01:46:33;;;;;;;5.30;3.58;;;;;;;;;;5098777;28;20431;-70
2022/02/17 01:48:59;;;;;;;7.07;3.35;;;;;;;;;;5091606;28;20123;-70
2022/02/17 01:51:26;;;;;;;3.85;2.83;;;;;;;;;;5088467;28;20044;-70
2022/02/17 01:53:55;;;;;;;8.30;3.00;;;;;;;;;;5096151;28;20136;-70
2022/02/17 01:56:21;;;;;;;4.68;3.28;;;;;;;;;;5099724;28;20083;-70
2022/02/17 01:58:48;;;;;;;4.88;2.90;;;;;;;;;;5094481;28;20162;-71
2022/02/17 02:01:15;;;;;;;;;;;;;;;;;;5100946;27;20094;-70
2022/02/17 02:03:42;;;;;;;7.97;2.92;;;;;;;;;;5087904;28;20628;-70
2022/02/17 02:06:08;;;;;;;7.63;3.38;;;;;;;;;;5090702;28;20083;-70
2022/02/17 02:08:36;;;;;;;5.95;2.80;;;;;;;;;;5088257;28;20132;-71
2022/02/17 02:11:03;;;;;;;7.57;3.23;;;;;;;;;;5088306;28;20070;-70
2022/02/17 02:13:29;;;;;;;6.45;3.78;;;;;;;;;;5093942;28;20132;-71
2022/02/17 02:15:57;;;;;;;5.72;3.47;;;;;;;;;;5098381;28;20086;-71
2022/02/17 02:18:24;;;;;;;6.32;3.33;;;;;;;;;;5099328;28;20126;-71
2022/02/17 02:20:52;;;;;;;8.13;3.55;;;;;;;;;;5094501;28;20551;-70
2022/02/17 02:23:25;;;;;;;6.00;4.07;;;;;;;;;;5087829;28;20135;-70
2022/02/17 02:25:52;;;;;;;10.50;3.40;;;;;;;;;;5089306;28;20167;-70
2022/02/17 02:28:19;;;;;;;12.10;3.03;;;;;;;;;;5091338;28;20392;-71
2022/02/17 02:30:53;;;;;;;8.27;3.47;;;;;;;;;;5097992;28;20136;-70
2022/02/17 02:33:19;;;;;;;11.90;3.40;;;;;;;;;;5097783;28;20123;-70
2022/02/17 02:35:49;;;;;;;5.72;2.58;;;;;;;;;;5098429;28;20147;-70
2022/02/17 02:38:15;;;;;;;6.85;2.65;;;;;;;;;;5092952;28;20574;-70
2022/02/17 02:40:42;;;;;;;5.93;2.40;;;;;;;;;;5089702;28;20048;-70
2022/02/17 02:43:09;;;;;;;8.07;2.53;;;;;;;;;;5092063;28;20089;-70
2022/02/17 02:45:37;;;;;;;4.47;1.92;;;;;;;;;;5097454;28;20175;-70
2022/02/17 02:48:07;;;;;;;5.47;2.15;;;;;;;;;;5090059;28;20430;-70
2022/02/17 02:50:34;;;;;;;5.15;3.05;;;;;;;;;;5071074;28;20130;-70
2022/02/17 02:53:01;;;;;;;4.88;2.15;;;;;;;;;;5088283;28;20048;-69
2022/02/17 02:55:27;;;;;;;2.58;1.60;;;;;;;;;;5087970;27;20166;-71
2022/02/17 02:57:54;;;;;;;3.03;1.77;;;;;;;;;;5078537;28;20126;-71
2022/02/17 03:00:21;;;;;;;3.53;2.20;;;;;;;;;;5087055;28;20166;-70
2022/02/17 03:02:47;;;;;;;4.28;1.73;;;;;;;;;;5098837;28;20140;-71
2022/02/17 03:05:14;;;;;;;4.20;2.38;;;;;;;;;;5100439;28;20083;-71
2022/02/17 03:07:41;;;;;;;6.38;1.80;;;;;;;;;;5096358;28;20086;-70
2022/02/17 03:10:08;;;;;;;5.57;2.05;;;;;;;;;;5094401;28;20105;-71
2022/02/17 03:12:35;;;;;;;5.43;2.17;;;;;;;;;;5089179;28;20241;-70
2022/02/17 03:15:03;;;;;;;4.13;2.10;;;;;;;;;;5088704;28;20131;-70
2022/02/17 03:17:30;;;;;;;3.13;1.90;;;;;;;;;;5089650;28;20071;-70
2022/02/17 03:19:56;;;;;;;10.43;2.72;;;;;;;;;;5099652;28;20134;-70
2022/02/17 03:22:23;;;;;;;6.00;2.03;;;;;;;;;;5097442;28;20816;-71
2022/02/17 03:24:49;;;;;;;5.03;1.87;;;;;;;;;;5099054;27;20138;-70
2022/02/17 03:27:16;;;;;;;5.03;2.40;;;;;;;;;;5093749;28;20090;-70
2022/02/17 03:29:49;;;;;;;4.60;2.28;;;;;;;;;;5087778;28;20075;-70
2022/02/17 03:32:16;;;;;;;7.18;2.30;;;;;;;;;;5087864;28;20138;-70
2022/02/17 03:34:42;;;;;;;7.50;2.22;;;;;;;;;;5094075;28;20075;-70
2022/02/17 03:37:10;;;;;;;11.57;2.90;;;;;;;;;;5097826;28;20094;-70
2022/02/17 03:39:37;;;;;;;7.15;2.50;;;;;;;;;;5095937;28;20079;-70
2022/02/17 03:42:04;;;;;;;5.80;2.40;;;;;;;;;;5095732;28;20086;-70
2022/02/17 03:44:32;;;;;;;7.80;2.22;;;;;;;;;;5090968;28;20131;-70
2022/02/17 03:46:58;;;;;;;4.75;2.25;;;;;;;;;;5088060;28;20054;-70
2022/02/17 03:49:25;;;;;;;8.18;2.75;;;;;;;;;;5087109;28;20051;-70
2022/02/17 03:51:57;;;;;;;5.75;2.70;;;;;;;;;;5086493;28;20126;-70
2022/02/17 03:54:24;;;;;;;3.13;2.17;;;;;;;;;;5087165;28;20175;-71
2022/02/17 03:56:50;;;;;;;11.07;2.85;;;;;;;;;;5094938;28;20127;-71
2022/02/17 03:59:17;;;;;;;3.53;1.95;;;;;;;;;;5094683;28;20831;-70
2022/02/17 04:01:43;;;;;;;4.28;2.22;;;;;;;;;;5088525;28;20491;-70
2022/02/17 04:04:10;;;;;;;8.63;2.85;;;;;;;;;;5089065;28;20518;-71
2022/02/17 04:06:37;;;;;;;12.40;2.67;;;;;;;;;;5089436;28;21861;-71
2022/02/17 04:09:05;;;;;;;5.68;2.30;;;;;;;;;;5088551;28;20122;-70
2022/02/17 04:11:32;;;;;;;6.22;2.50;;;;;;;;;;5091042;28;20135;-70
2022/02/17 04:13:59;;;;;;;6.10;2.20;;;;;;;;;;5091830;28;20134;-70
2022/02/17 04:16:25;;;;;;;9.05;2.65;;;;;;;;;;5095441;28;20147;-70
2022/02/17 04:18:52;;;;;;;6.78;3.00;;;;;;;;;;5100627;28;20048;-70
2022/02/17 04:21:25;;;;;;;3.80;2.40;;;;;;;;;;5091162;28;20177;-70
2022/02/17 04:23:51;;;;;;;7.13;2.87;;;;;;;;;;5088843;28;20056;-71
2022/02/17 04:26:19;;;;;;;5.95;2.65;;;;;;;;;;5091489;28;20337;-70
2022/02/17 04:28:47;;;;;;;6.80;2.70;;;;;;;;;;5092666;28;20097;-70
2022/02/17 04:31:13;;;;;;;7.55;2.83;;;;;;;;;;5089827;28;20079;-70
2022/02/17 04:33:41;;;;;;;7.23;3.20;;;;;;;;;;5091612;28;20125;-70
2022/02/17 04:36:15;;;;;;;6.70;2.42;;;;;;;;;;5089348;28;20661;-69
2022/02/17 04:38:41;;;;;;;10.55;2.88;;;;;;;;;;5091757;28;20068;-70
2022/02/17 04:43:55;;;;;;;14.55;3.60;;;;;;;;;;5088959;28;20044;-70
2022/02/17 04:46:23;;;;;;;9.73;2.70;;;;;;;;;;5092351;28;20062;-70
2022/02/17 04:48:50;;;;;;;13.73;3.47;;;;;;;;;;5092045;28;20494;-70
2022/02/17 04:51:17;;;;;;;20.27;3.60;;;;;;;;;;5089183;28;20116;-70
2022/02/17 04:53:43;;;;;;;11.88;3.40;;;;;;;;;;5091611;28;20048;-70
2022/02/17 04:56:11;;;;;;;12.23;3.30;;;;;;;;;;5090006;28;20043;-70
2022/02/17 04:58:38;;;;;;;10.88;3.38;;;;;;;;;;5089137;28;20147;-70
2022/02/17 05:01:05;;;;;;;14.77;3.50;;;;;;;;;;5094483;28;20047;-70
2022/02/17 05:03:32;;;;;;;19.45;3.42;;;;;;;;;;5098563;28;20305;-70
2022/02/17 05:06:02;;;;;;;10.35;3.05;;;;;;;;;;5100700;28;20122;-69
2022/02/17 05:08:31;;;;;;;17.20;3.97;;;;;;;;;;5103362;28;20055;-70
2022/02/17 05:10:57;;;;;;;24.00;3.17;;;;;;;;;;5100403;28;20483;-69
2022/02/17 05:13:24;;;;;;;16.17;3.78;;;;;;;;;;5096260;27;20305;-70
2022/02/17 05:15:51;;;;;;;17.52;3.97;;;;;;;;;;5090484;28;20052;-69
2022/02/17 05:18:17;;;;;;;17.85;3.60;;;;;;;;;;5090708;28;20567;-69
2022/02/17 05:20:50;;;;;;;17.17;3.90;;;;;;;;;;5100441;27;20716;-69
2022/02/17 05:23:17;;;;;;;26.40;5.05;;;;;;;;;;5096252;27;20126;-70
2022/02/17 05:25:47;;;;;;;28.25;5.25;;;;;;;;;;5087660;28;20050;-69
2022/02/17 05:28:16;;;;;;;32.03;6.20;;;;;;;;;;5090857;28;20150;-69
2022/02/17 05:30:43;;;;;;;29.95;7.53;;;;;;;;;;5089186;28;20052;-69
2022/02/17 05:33:10;;;;;;;34.30;7.03;;;;;;;;;;5089472;28;20490;-69
2022/02/17 05:35:37;;;;;;;26.77;5.85;;;;;;;;;;5094442;28;20091;-69
2022/02/17 05:38:04;;;;;;;26.83;5.68;;;;;;;;;;5099753;28;20052;-70
2022/02/17 05:40:31;;;;;;;31.17;5.35;;;;;;;;;;5096321;28;20067;-69
2022/02/17 05:42:58;;;;;;;28.02;5.40;;;;;;;;;;5089350;28;20040;-69
2022/02/17 05:45:25;;;;;;;35.45;5.63;;;;;;;;;;5091204;28;20127;-70
2022/02/17 05:47:53;;;;;;;26.38;5.50;;;;;;;;;;5087878;28;20134;-70
2022/02/17 05:50:25;;;;;;;25.00;5.68;;;;;;;;;;5091011;28;20131;-70
2022/02/17 05:52:52;;;;;;;28.77;5.35;;;;;;;;;;5088600;28;20133;-70
2022/02/17 05:55:18;;;;;;;19.95;5.05;;;;;;;;;;5092293;28;20051;-70
2022/02/17 05:57:48;;;;;;;31.70;5.40;;;;;;;;;;5098263;28;20054;-70
2022/02/17 06:00:14;;;;;;;30.90;5.13;;;;;;;;;;5100684;28;20079;-70
2022/02/17 06:02:41;;;;;;;20.30;3.80;;;;;;;;;;5095435;28;20127;-70
2022/02/17 06:05:10;;;;;;;36.30;5.35;;;;;;;;;;5101525;28;20135;-70
2022/02/17 06:07:36;;;;;;;16.90;4.20;;;;;;;;;;5097882;28;20272;-70
2022/02/17 06:10:03;;;;;;;44.17;5.95;;;;;;;;;;5088778;28;20061;-69
2022/02/17 06:12:30;;;;;;;38.83;4.50;;;;;;;;;;5090452;28;20174;-69
2022/02/17 06:14:57;;;;;;;35.70;5.15;;;;;;;;;;5091568;28;20172;-69
2022/02/17 06:17:24;;;;;;;31.15;4.88;;;;;;;;;;5088492;27;20313;-69
2022/02/17 06:19:57;;;;;;;27.10;4.35;;;;;;;;;;5087887;28;20134;-69
2022/02/17 06:22:24;;;;;;;31.08;4.40;;;;;;;;;;5095046;28;20139;-69
2022/02/17 06:24:51;;;;;;;30.95;4.05;;;;;;;;;;5095151;28;20130;-69
2022/02/17 06:27:19;;;;;;;35.08;5.00;;;;;;;;;;5098084;28;20567;-69
2022/02/17 06:29:45;;;;;;;24.27;4.35;;;;;;;;;;5095127;28;20554;-69
2022/02/17 06:32:12;;;;;;;39.65;5.35;;;;;;;;;;5093043;28;20142;-70
2022/02/17 06:34:39;;;;;;;24.02;4.05;;;;;;;;;;5098764;28;20128;-69
2022/02/17 06:37:05;;;;;;;34.75;5.20;;;;;;;;;;5099667;28;20101;-69
2022/02/17 06:39:32;;;;;;;21.13;4.60;;;;;;;;;;5096695;28;20075;-69
2022/02/17 06:41:59;;;;;;;34.22;5.25;;;;;;;;;;5096303;28;20051;-69
2022/02/17 06:44:25;;;;;;;30.53;4.53;;;;;;;;;;5097799;28;20127;-69
2022/02/17 06:46:52;;;;;;;26.85;4.65;;;;;;;;;;5098129;27;20054;-69
2022/02/17 06:49:28;;;;;;;37.13;5.10;;;;;;;;;;5099175;28;20331;-69
2022/02/17 06:51:54;;;;;;;;;;;;;;;;;;5077461;28;20039;-69
2022/02/17 06:54:20;;;;;;;33.33;4.40;;;;;;;;;;5096662;27;20689;-69
2022/02/17 06:56:47;;;;;;;31.35;4.15;;;;;;;;;;5095889;28;20173;-69
2022/02/17 06:59:13;;;;;;;34.85;4.47;;;;;;;;;;5100939;28;20138;-69
2022/02/17 07:01:40;;;;;;;44.40;4.53;;;;;;;;;;5095673;28;20135;-69
2022/02/17 07:04:13;;;;;;;27.90;3.65;;;;;;;;;;5098237;28;20126;-69
2022/02/17 07:06:40;;;;;;;27.48;4.75;;;;;;;;;;5094816;28;20085;-69
2022/02/17 07:09:06;;;;;;;25.00;4.10;;;;;;;;;;5096770;28;20590;-69
2022/02/17 07:11:34;;;;;;;23.10;3.70;;;;;;;;;;5100220;28;20139;-69
2022/02/17 07:14:02;;;;;;;40.33;4.05;;;;;;;;;;5096440;27;20083;-69
2022/02/17 07:16:29;;;;;;;24.23;4.57;;;;;;;;;;5098885;28;20519;-69
2022/02/17 07:18:56;;;;;;;37.97;4.35;;;;;;;;;;5097015;28;20039;-69
2022/02/17 07:21:22;;;;;;;25.13;3.55;;;;;;;;;;5090611;28;20772;-69
2022/02/17 07:23:49;;;;;;;23.48;3.55;;;;;;;;;;5084784;28;20564;-69
2022/02/17 07:26:22;;;;;;;25.92;4.30;;;;;;;;;;5087875;28;20134;-70
2022/02/17 07:28:48;;;;;;;26.20;3.83;;;;;;;;;;5087267;28;20050;-69
2022/02/17 07:31:14;;;;;;;30.58;4.55;;;;;;;;;;5095445;28;20527;-69
2022/02/17 07:33:43;;;;;;;29.15;4.45;;;;;;;;;;5099435;28;20123;-69
2022/02/17 07:36:11;;;;;;;22.92;4.20;;;;;;;;;;5094330;28;20522;-70
2022/02/17 07:38:47;;;;;;;20.20;3.80;;;;;;;;;;5088597;28;20133;-69
2022/02/17 07:41:14;;;;;;;28.35;3.85;;;;;;;;;;5086890;28;20190;-69
2022/02/17 07:43:41;;;;;;;20.88;3.45;;;;;;;;;;5086122;28;20047;-69
2022/02/17 07:46:07;;;;;;;35.38;3.65;;;;;;;;;;5084293;28;20147;-69
2022/02/17 07:48:35;;;;;;;18.48;3.08;;;;;;;;;;5091746;28;20127;-69
2022/02/17 07:51:01;;;;;;;33.15;3.60;;;;;;;;;;5095922;28;20071;-69
2022/02/17 07:53:27;;;;;;;14.13;2.97;;;;;;;;;;5089536;28;20471;-69
2022/02/17 07:55:54;;;;;;;21.50;3.25;;;;;;;;;;5078600;28;20572;-71
2022/02/17 07:58:23;;;;;;;16.80;2.75;;;;;;;;;;5094870;28;20062;-69
2022/02/17 08:00:49;;;;;;;24.90;3.33;;;;;;;;;;5086539;28;20136;-70
2022/02/17 08:03:18;;;;;;;24.30;3.00;;;;;;;;;;5086567;28;20102;-70
2022/02/17 08:05:45;;;;;;;20.13;3.35;;;;;;;;;;5087548;28;20075;-70
2022/02/17 08:08:12;;;;;;;20.77;2.70;;;;;;;;;;5085612;28;20055;-69
2022/02/17 08:10:39;;;;;;;;;;;;;;;;;;5087949;28;20048;-70
2022/02/17 08:13:06;;;;;;;18.70;3.10;;;;;;;;;;5088541;28;20031;-70
2022/02/17 08:15:33;;;;;;;20.00;2.77;;;;;;;;;;5087404;28;20856;-70
2022/02/17 08:18:02;;;;;;;16.58;3.30;;;;;;;;;;5086502;28;20035;-70
2022/02/17 08:20:29;;;;;;;11.17;2.10;;;;;;;;;;5087950;28;20048;-71
2022/02/17 08:22:56;;;;;;;18.70;2.65;;;;;;;;;;5087322;28;20135;-71
2022/02/17 08:25:25;;;;;;;18.58;2.88;;;;;;;;;;5087957;28;20784;-71
2022/02/17 08:27:52;;;;;;;21.80;3.40;;;;;;;;;;5086470;28;20079;-70
2022/02/17 08:30:22;;;;;;;20.45;4.15;;;;;;;;;;5087355;28;20044;-71
2022/02/17 08:32:56;;;;;;;20.85;3.22;;;;;;;;;;5086147;28;20131;-71
2022/02/17 08:35:23;;;;;;;;;;;;;;;;;;5087619;28;20040;-71
2022/02/17 08:37:49;;;;;;;21.30;2.83;;;;;;;;;;5085881;28;20400;-73
2022/02/17 08:40:23;;;;;;;23.83;3.60;;;;;;;;;;5088382;28;20051;-71
2022/02/17 08:42:50;;;;;;;23.52;3.42;;;;;;;;;;5098469;28;20047;-71
2022/02/17 08:45:16;;;;;;;21.25;3.20;;;;;;;;;;5094669;28;20090;-71
2022/02/17 08:47:49;;;;;;;21.45;4.75;;;;;;;;;;5086429;28;20485;-70
2022/02/17 08:50:16;;;;;;;17.85;2.95;;;;;;;;;;5086713;28;20558;-71
2022/02/17 08:52:42;;;;;;;23.43;3.60;;;;;;;;;;5086934;28;20048;-71
2022/02/17 08:55:36;;;;;;;16.77;2.90;;;;;;;;;;5087484;28;20052;-71
2022/02/17 08:58:02;;;;;;;14.07;2.38;;;;;;;;;;5090083;28;20052;-72
2022/02/17 09:00:38;;;;;;;15.95;3.10;;;;;;;;;;5094445;28;20048;-72
2022/02/17 09:03:11;;;;;;;13.38;3.40;;;;;;;;;;5099607;28;20105;-71
2022/02/17 09:05:40;;;;;;;19.35;2.90;;;;;;;;;;5096857;28;20650;-70
2022/02/17 09:08:22;;;;;;;16.80;2.67;;;;;;;;;;5098256;28;20519;-70
2022/02/17 09:10:50;;;;;;;16.20;2.88;;;;;;;;;;5091704;28;20079;-71
2022/02/17 09:13:16;;;;;;;15.47;2.03;;;;;;;;;;5090206;28;20055;-71
2022/02/17 09:15:43;;;;;;;17.70;3.53;;;;;;;;;;5089931;28;20050;-70
2022/02/17 09:18:16;;;;;;;18.48;2.63;;;;;;;;;;5089844;28;20195;-70
2022/02/17 09:20:43;;;;;;;12.27;2.47;;;;;;;;;;5089457;28;20060;-70
2022/02/17 09:23:09;;;;;;;14.77;2.58;;;;;;;;;;5090951;28;20082;-70
2022/02/17 09:25:36;;;;;;;20.43;3.07;;;;;;;;;;5090307;28;20051;-70
2022/02/17 09:28:03;;;;;;;10.82;2.67;;;;;;;;;;5091795;28;20701;-70
2022/02/17 09:30:29;;;;;;;21.80;3.08;;;;;;;;;;5092565;28;20130;-70
2022/02/17 09:32:57;;;;;;;13.10;3.07;;;;;;;;;;5096801;28;20082;-70
2022/02/17 09:35:26;;;;;;;11.32;2.33;;;;;;;;;;5101594;28;20437;-71
2022/02/17 09:37:52;;;;;;;13.32;2.67;;;;;;;;;;5102505;27;20142;-70
2022/02/17 09:40:20;;;;;;;18.70;2.70;;;;;;;;;;5093758;28;20144;-71
2022/02/17 09:42:47;;;;;;;16.23;2.95;;;;;;;;;;5095460;28;20147;-70
2022/02/17 09:45:13;;;;;;;12.13;2.55;;;;;;;;;;5098859;28;20460;-71
2022/02/17 09:47:41;;;;;;;11.30;2.63;;;;;;;;;;5097112;28;20083;-71
2022/02/17 09:50:09;;;;;;;12.68;2.47;;;;;;;;;;5092001;28;20194;-69
2022/02/17 09:52:38;;;;;;;15.75;3.33;;;;;;;;;;5089321;28;20048;-69
2022/02/17 09:55:06;;;;;;;8.25;2.08;;;;;;;;;;5096825;28;20046;-70
2022/02/17 09:57:32;;;;;;;12.27;2.13;;;;;;;;;;5098984;28;20154;-70
2022/02/17 10:00:00;;;;;;;12.65;2.08;;;;;;;;;;5092582;28;20076;-70
2022/02/17 10:02:26;;;;;;;;;;;;;;;;;;5091075;28;20098;-70
2022/02/17 10:04:56;;;;;;;14.85;2.83;;;;;;;;;;5089029;28;19923;-70
2022/02/17 10:07:30;;;;;;;8.60;2.25;;;;;;;;;;5089173;28;20078;-70
2022/02/17 10:09:59;;;;;;;8.35;1.92;;;;;;;;;;5091627;28;20071;-70
2022/02/17 10:12:45;;;;;;;11.80;2.65;;;;;;;;;;5089875;28;20143;-70
2022/02/17 10:15:23;;;;;;;11.50;2.13;;;;;;;;;;5088537;28;20067;-70
2022/02/17 10:18:00;;;;;;;10.43;2.35;;;;;;;;;;5088094;28;20052;-70
2022/02/17 10:20:28;;;;;;;13.52;2.15;;;;;;;;;;5087632;28;20048;-70
2022/02/17 10:23:05;;;;;;;11.25;2.13;;;;;;;;;;5089026;28;20250;-70
2022/02/17 10:25:31;;;;;;;9.10;2.67;;;;;;;;;;5089007;28;20071;-70
2022/02/17 10:28:10;;;;;;;13.98;2.58;;;;;;;;;;5089689;28;20387;-70
2022/02/17 10:30:40;;;;;;;15.10;2.58;;;;;;;;;;5090554;28;20133;-70
2022/02/17 10:33:08;;;;;;;9.48;2.40;;;;;;;;;;5088393;28;20051;-70
2022/02/17 10:35:35;;;;;;;13.90;2.55;;;;;;;;;;5090182;28;20089;-71
2022/02/17 10:38:02;;;;;;;7.97;2.23;;;;;;;;;;5100077;28;20510;-69
2022/02/17 10:40:30;;;;;;;11.60;2.00;;;;;;;;;;5094201;28;20695;-70
2022/02/17 10:43:17;;;;;;;11.20;2.25;;;;;;;;;;5093390;28;20048;-70
2022/02/17 10:45:45;;;;;;;11.50;2.00;;;;;;;;;;5099582;27;20048;-70
2022/02/17 10:48:20;;;;;;;12.43;2.25;;;;;;;;;;5097255;28;20603;-70
2022/02/17 10:50:48;;;;;;;7.43;1.95;;;;;;;;;;5095572;28;20043;-70
2022/02/17 10:53:21;;;;;;;13.80;2.50;;;;;;;;;;5087811;28;20047;-70
2022/02/17 10:55:56;;;;;;;7.07;1.92;;;;;;;;;;5088375;27;22266;-69
2022/02/17 10:58:27;;;;;;;10.88;1.88;;;;;;;;;;5091646;27;20058;-69
2022/02/17 11:00:56;;;;;;;8.35;1.92;;;;;;;;;;5088702;27;20058;-70
2022/02/17 11:03:27;;;;;;;15.60;2.53;;;;;;;;;;5088163;28;20134;-70
2022/02/17 11:06:06;;;;;;;11.85;2.28;;;;;;;;;;5087967;27;21916;-70
2022/02/17 11:08:34;;;;;;;12.55;2.30;;;;;;;;;;5071096;28;20481;-70
2022/02/17 11:11:00;;;;;;;9.13;2.55;;;;;;;;;;5087691;28;20068;-70
2022/02/17 11:13:27;;;;;;;7.13;2.25;;;;;;;;;;5100272;28;20561;-69
2022/02/17 11:15:57;;;;;;;9.85;1.88;;;;;;;;;;5096003;28;20048;-70
2022/02/17 11:18:23;;;;;;;8.23;1.88;;;;;;;;;;5095684;28;20078;-70
2022/02/17 11:20:50;;;;;;;11.48;2.30;;;;;;;;;;5097533;28;20142;-70
2022/02/17 11:23:28;;;;;;;9.43;2.58;;;;;;;;;;5095358;28;20078;-71
2022/02/17 11:25:54;;;;;;;7.47;2.42;;;;;;;;;;5096716;28;20135;-69
2022/02/17 11:28:29;;;;;;;9.35;3.13;;;;;;;;;;5097533;28;20819;-69
2022/02/17 11:31:04;;;;;;;13.77;2.42;;;;;;;;;;5097420;28;20075;-70
2022/02/17 11:33:33;;;;;;;13.38;2.33;;;;;;;;;;5096419;27;20545;-70
2022/02/17 11:36:08;;;;;;;8.82;2.65;;;;;;;;;;5096975;28;20059;-70
2022/02/17 11:38:40;;;;;;;10.77;1.95;;;;;;;;;;5096230;28;20047;-70
2022/02/17 11:41:10;;;;;;;10.18;2.47;;;;;;;;;;5095183;28;20171;-70
2022/02/17 11:43:40;;;;;;;14.70;2.28;;;;;;;;;;5095812;28;20579;-71
2022/02/17 11:46:06;;;;;;;8.38;2.00;;;;;;;;;;5093079;28;20740;-70
2022/02/17 11:48:51;;;;;;;14.60;2.67;;;;;;;;;;5094813;28;20090;-70
2022/02/17 11:51:19;;;;;;;15.25;2.22;;;;;;;;;;5096285;28;20563;-70
2022/02/17 11:53:47;;;;;;;12.43;1.90;;;;;;;;;;5097699;28;20154;-70
2022/02/17 11:56:19;;;;;;;9.00;1.85;;;;;;;;;;5093708;28;20131;-70
2022/02/17 11:58:50;;;;;;;7.90;1.83;;;;;;;;;;5095011;28;20158;-70
2022/02/17 12:01:26;;;;;;;12.50;2.40;;;;;;;;;;5092515;28;20072;-70
2022/02/17 12:04:09;;;;;;;10.98;2.13;;;;;;;;;;5094295;28;20130;-68
2022/02/17 12:07:03;;;;;;;11.77;1.90;;;;;;;;;;5096252;28;20521;-69
2022/02/17 12:09:41;;;;;;;11.18;2.53;;;;;;;;;;5096262;28;20079;-69
2022/02/17 12:12:26;;;;;;;13.35;2.40;;;;;;;;;;5095252;28;20522;-70
2022/02/17 12:15:04;;;;;;;14.38;2.75;;;;;;;;;;5095464;28;20581;-70
2022/02/17 12:17:33;;;;;;;11.00;2.28;;;;;;;;;;5101248;28;20048;-70
2022/02/17 12:20:06;;;;;;;8.20;2.00;;;;;;;;;;5096260;28;20127;-69
2022/02/17 12:22:32;;;;;;;17.40;2.15;;;;;;;;;;5092126;28;20136;-70
2022/02/17 12:25:12;;;;;;;18.33;2.93;;;;;;;;;;5093536;28;20091;-69
2022/02/17 12:27:39;;;;;;;10.82;1.85;;;;;;;;;;5096784;28;20472;-69
2022/02/17 12:30:06;;;;;;;11.45;2.05;;;;;;;;;;5096497;28;20072;-70
2022/02/17 12:32:34;;;;;;;10.68;1.98;;;;;;;;;;5098300;28;20090;-70
2022/02/17 12:35:00;;;;;;;9.48;1.88;;;;;;;;;;5103060;28;20119;-70
2022/02/17 12:37:27;;;;;;;8.10;1.95;;;;;;;;;;5101152;28;20051;-70
2022/02/17 12:39:56;;;;;;;12.88;2.25;;;;;;;;;;5097860;27;20237;-70
2022/02/17 12:42:25;;;;;;;5.07;1.40;;;;;;;;;;5098947;28;20086;-70
2022/02/17 12:44:51;;;;;;;9.98;1.60;;;;;;;;;;5097490;28;21013;-70
2022/02/17 12:47:18;;;;;;;7.90;1.33;;;;;;;;;;5101399;28;20127;-70
2022/02/17 12:49:52;;;;;;;6.43;1.58;;;;;;;;;;5101730;28;20083;-70
2022/02/17 12:52:22;;;;;;;11.13;2.38;;;;;;;;;;5098226;28;20078;-69
2022/02/17 12:54:52;;;;;;;10.15;1.67;;;;;;;;;;5095617;28;20529;-71
2022/02/17 12:57:19;;;;;;;8.05;1.88;;;;;;;;;;5097409;28;20087;-71
2022/02/17 12:59:55;;;;;;;5.47;1.70;;;;;;;;;;5100421;28;20237;-70
2022/02/17 13:02:22;;;;;;;8.50;1.85;;;;;;;;;;5098865;28;20214;-70
2022/02/17 13:04:48;;;;;;;7.35;1.42;;;;;;;;;;5097810;28;20087;-71
2022/02/17 13:07:15;;;;;;;5.03;1.40;;;;;;;;;;5099293;28;20082;-70
2022/02/17 13:09:51;;;;;;;8.38;1.75;;;;;;;;;;5098246;28;20489;-71
2022/02/17 13:12:18;;;;;;;5.70;1.65;;;;;;;;;;5099672;28;20079;-71
2022/02/17 13:14:45;;;;;;;13.10;1.60;;;;;;;;;;5097706;28;20522;-69
2022/02/17 13:17:12;;;;;;;4.38;1.27;;;;;;;;;;5098372;28;20313;-69
2022/02/17 13:19:43;;;;;;;4.80;1.10;;;;;;;;;;5101074;27;20143;-69
2022/02/17 13:22:23;;;;;;;3.70;1.00;;;;;;;;;;5100212;28;20505;-69
2022/02/17 13:24:54;;;;;;;8.18;1.30;;;;;;;;;;5102191;27;20147;-70
2022/02/17 13:27:21;;;;;;;5.60;1.15;;;;;;;;;;5098746;28;20478;-70
2022/02/17 13:29:52;;;;;;;5.05;1.30;;;;;;;;;;5097286;28;20087;-70
2022/02/17 13:32:19;;;;;;;4.43;1.20;;;;;;;;;;5099942;28;20127;-70
2022/02/17 13:34:46;;;;;;;8.35;1.33;;;;;;;;;;5098795;28;20094;-71
2022/02/17 13:37:16;;;;;;;4.47;1.50;;;;;;;;;;5096373;28;20062;-71
2022/02/17 13:39:56;;;;;;;9.88;1.50;;;;;;;;;;5096577;28;20047;-71
2022/02/17 13:42:23;;;;;;;14.50;1.60;;;;;;;;;;5098348;28;20173;-70
2022/02/17 13:44:53;;;;;;;10.30;1.80;;;;;;;;;;5098285;28;20050;-70
2022/02/17 13:47:33;;;;;;;7.53;1.80;;;;;;;;;;5097578;28;20131;-70
2022/02/17 13:50:05;;;;;;;14.50;1.60;;;;;;;;;;5099162;28;20138;-70
2022/02/17 13:52:31;;;;;;;6.88;1.65;;;;;;;;;;5093828;28;20044;-69
2022/02/17 13:54:58;;;;;;;11.18;1.88;;;;;;;;;;5095441;28;20143;-69
2022/02/17 13:57:29;;;;;;;5.70;1.35;;;;;;;;;;5097868;28;20048;-69
2022/02/17 14:00:05;;;;;;;5.97;1.30;;;;;;;;;;5099144;28;20142;-69
2022/02/17 14:02:33;;;;;;;8.85;2.38;;;;;;;;;;5100254;28;20130;-69
2022/02/17 14:05:07;;;;;;;8.07;1.70;;;;;;;;;;5097079;28;20135;-69
2022/02/17 14:07:39;;;;;;;9.07;1.85;;;;;;;;;;5096241;28;20054;-69
2022/02/17 14:10:06;;;;;;;9.20;1.63;;;;;;;;;;5097894;28;20083;-70
2022/02/17 14:12:42;;;;;;;10.02;1.55;;;;;;;;;;5098242;28;20048;-69
2022/02/17 14:15:15;;;;;;;6.88;1.50;;;;;;;;;;5100470;28;20127;-70
2022/02/17 14:17:42;;;;;;;10.27;1.63;;;;;;;;;;5096612;28;20075;-70
2022/02/17 14:20:09;;;;;;;11.15;1.85;;;;;;;;;;5095125;28;20044;-69
2022/02/17 14:22:37;;;;;;;9.35;1.60;;;;;;;;;;5099684;28;20051;-69
2022/02/17 14:25:04;;;;;;;9.13;1.92;;;;;;;;;;5099473;28;20139;-70
2022/02/17 14:27:30;;;;;;;4.45;1.60;;;;;;;;;;5095281;27;20135;-70
2022/02/17 14:29:59;;;;;;;6.35;1.80;;;;;;;;;;5096915;28;20140;-69
2022/02/17 14:32:25;;;;;;;14.15;1.55;;;;;;;;;;5098348;28;20490;-70
2022/02/17 14:35:09;;;;;;;10.70;1.50;;;;;;;;;;5097398;28;20488;-69
2022/02/17 14:37:37;;;;;;;5.57;1.60;;;;;;;;;;5094920;28;20146;-69
2022/02/17 14:40:04;;;;;;;8.23;1.40;;;;;;;;;;5096288;28;20553;-70
2022/02/17 14:42:30;;;;;;;11.20;1.47;;;;;;;;;;5102394;28;20146;-70
2022/02/17 14:44:58;;;;;;;8.47;1.50;;;;;;;;;;5098852;28;20361;-70
2022/02/17 14:47:25;;;;;;;7.57;1.17;;;;;;;;;;5098255;28;20116;-69
2022/02/17 14:49:53;;;;;;;8.38;1.20;;;;;;;;;;5097581;28;20139;-70